sensor_id;sensor_type;location;lat;lon;timestamp;P1;durP1;ratioP1;P2;durP2;ratioP2
30249;SDS011;17064;47.974;13.826;2023-06-14T00:04:09;3.17;;;2.13;;
30249;SDS011;17064;47.974;13.826;2023-06-14T00:09:10;3.65;;;2.00;;
30249;SDS011;17064;47.974;13.826;2023-06-14T00:14:13;2.85;;;2.13;;
30249;SDS011;17064;47.974;13.826;2023-06-14T00:19:13;4.63;;;2.85;;
30249;SDS011;17064;47.974;13.826;2023-06-14T00:24:14;3.65;;;2.50;;
30249;SDS011;17064;47.974;13.826;2023-06-14T00:29:15;3.28;;;1.90;;
30249;SDS011;17064;47.974;13.826;2023-06-14T00:34:15;3.45;;;2.20;;
30249;SDS011;17064;47.974;13.826;2023-06-14T00:39:16;5.65;;;2.22;;
30249;SDS011;17064;47.974;13.826;2023-06-14T00:44:17;5.88;;;2.30;;
30249;SDS011;17064;47.974;13.826;2023-06-14T00:49:18;3.08;;;2.30;;
30249;SDS011;17064;47.974;13.826;2023-06-14T00:54:20;4.15;;;2.95;;
30249;SDS011;17064;47.974;13.826;2023-06-14T00:59:20;4.30;;;2.65;;
30249;SDS011;17064;47.974;13.826;2023-06-14T01:04:21;3.97;;;2.50;;
30249;SDS011;17064;47.974;13.826;2023-06-14T01:09:32;7.75;;;2.95;;
30249;SDS011;17064;47.974;13.826;2023-06-14T01:14:41;3.80;;;2.72;;
30249;SDS011;17064;47.974;13.826;2023-06-14T01:19:42;3.03;;;2.13;;
30249;SDS011;17064;47.974;13.826;2023-06-14T01:24:44;3.63;;;2.00;;
30249;SDS011;17064;47.974;13.826;2023-06-14T01:29:46;3.85;;;2.45;;
30249;SDS011;17064;47.974;13.826;2023-06-14T01:34:47;3.50;;;2.15;;
30249;SDS011;17064;47.974;13.826;2023-06-14T01:39:48;3.75;;;2.50;;
30249;SDS011;17064;47.974;13.826;2023-06-14T01:44:50;6.43;;;2.33;;
30249;SDS011;17064;47.974;13.826;2023-06-14T01:49:53;4.30;;;2.42;;
30249;SDS011;17064;47.974;13.826;2023-06-14T01:54:54;4.85;;;2.28;;
30249;SDS011;17064;47.974;13.826;2023-06-14T01:59:54;3.63;;;2.00;;
30249;SDS011;17064;47.974;13.826;2023-06-14T02:04:55;3.40;;;2.58;;
30249;SDS011;17064;47.974;13.826;2023-06-14T02:09:57;4.05;;;2.50;;
30249;SDS011;17064;47.974;13.826;2023-06-14T02:14:58;3.38;;;2.30;;
30249;SDS011;17064;47.974;13.826;2023-06-14T02:19:59;3.40;;;2.55;;
30249;SDS011;17064;47.974;13.826;2023-06-14T02:24:59;4.93;;;2.75;;
30249;SDS011;17064;47.974;13.826;2023-06-14T02:30:01;4.22;;;2.28;;
30249;SDS011;17064;47.974;13.826;2023-06-14T02:35:02;4.30;;;2.25;;
30249;SDS011;17064;47.974;13.826;2023-06-14T02:40:04;4.18;;;2.42;;
30249;SDS011;17064;47.974;13.826;2023-06-14T02:45:06;8.63;;;2.67;;
30249;SDS011;17064;47.974;13.826;2023-06-14T02:50:07;11.73;;;2.97;;
30249;SDS011;17064;47.974;13.826;2023-06-14T02:55:09;26.48;;;3.60;;
30249;SDS011;17064;47.974;13.826;2023-06-14T03:00:10;8.23;;;2.95;;
30249;SDS011;17064;47.974;13.826;2023-06-14T03:05:13;6.93;;;2.63;;
30249;SDS011;17064;47.974;13.826;2023-06-14T03:10:14;6.72;;;2.72;;
30249;SDS011;17064;47.974;13.826;2023-06-14T03:15:15;4.07;;;2.50;;
30249;SDS011;17064;47.974;13.826;2023-06-14T03:20:17;5.60;;;2.63;;
30249;SDS011;17064;47.974;13.826;2023-06-14T03:25:19;6.90;;;2.85;;
30249;SDS011;17064;47.974;13.826;2023-06-14T03:30:21;4.47;;;2.40;;
30249;SDS011;17064;47.974;13.826;2023-06-14T03:35:22;5.60;;;2.47;;
30249;SDS011;17064;47.974;13.826;2023-06-14T03:40:26;4.45;;;2.88;;
30249;SDS011;17064;47.974;13.826;2023-06-14T03:45:27;7.53;;;3.20;;
30249;SDS011;17064;47.974;13.826;2023-06-14T03:50:28;5.90;;;2.70;;
30249;SDS011;17064;47.974;13.826;2023-06-14T03:55:28;12.38;;;3.30;;
30249;SDS011;17064;47.974;13.826;2023-06-14T04:00:31;3.83;;;2.38;;
30249;SDS011;17064;47.974;13.826;2023-06-14T04:05:32;4.57;;;2.25;;
30249;SDS011;17064;47.974;13.826;2023-06-14T04:10:33;5.30;;;3.00;;
30249;SDS011;17064;47.974;13.826;2023-06-14T04:15:33;3.97;;;2.85;;
30249;SDS011;17064;47.974;13.826;2023-06-14T04:20:35;2.72;;;2.30;;
30249;SDS011;17064;47.974;13.826;2023-06-14T04:25:36;5.05;;;3.17;;
30249;SDS011;17064;47.974;13.826;2023-06-14T04:30:37;6.05;;;2.70;;
30249;SDS011;17064;47.974;13.826;2023-06-14T04:35:38;6.70;;;4.22;;
30249;SDS011;17064;47.974;13.826;2023-06-14T04:40:40;8.05;;;4.68;;
30249;SDS011;17064;47.974;13.826;2023-06-14T04:50:46;12.95;;;6.35;;
30249;SDS011;17064;47.974;13.826;2023-06-14T04:55:47;5.70;;;4.03;;
30249;SDS011;17064;47.974;13.826;2023-06-14T05:00:48;8.90;;;4.90;;
30249;SDS011;17064;47.974;13.826;2023-06-14T05:05:49;12.80;;;4.93;;
30249;SDS011;17064;47.974;13.826;2023-06-14T05:10:50;21.38;;;5.88;;
30249;SDS011;17064;47.974;13.826;2023-06-14T05:15:51;8.50;;;4.45;;
30249;SDS011;17064;47.974;13.826;2023-06-14T05:20:53;7.15;;;3.95;;
30249;SDS011;17064;47.974;13.826;2023-06-14T05:25:54;6.32;;;3.40;;
30249;SDS011;17064;47.974;13.826;2023-06-14T05:30:55;5.82;;;3.60;;
30249;SDS011;17064;47.974;13.826;2023-06-14T05:35:55;10.25;;;4.15;;
30249;SDS011;17064;47.974;13.826;2023-06-14T05:40:56;7.18;;;3.67;;
30249;SDS011;17064;47.974;13.826;2023-06-14T05:45:57;7.25;;;4.03;;
30249;SDS011;17064;47.974;13.826;2023-06-14T05:50:58;6.55;;;3.85;;
30249;SDS011;17064;47.974;13.826;2023-06-14T05:55:59;5.47;;;3.38;;
30249;SDS011;17064;47.974;13.826;2023-06-14T06:00:59;7.18;;;3.47;;
30249;SDS011;17064;47.974;13.826;2023-06-14T06:06:01;4.15;;;3.28;;
30249;SDS011;17064;47.974;13.826;2023-06-14T06:11:03;6.63;;;3.40;;
30249;SDS011;17064;47.974;13.826;2023-06-14T06:16:04;8.88;;;3.95;;
30249;SDS011;17064;47.974;13.826;2023-06-14T06:21:05;5.07;;;3.10;;
30249;SDS011;17064;47.974;13.826;2023-06-14T06:26:06;5.35;;;3.65;;
30249;SDS011;17064;47.974;13.826;2023-06-14T06:31:07;7.40;;;4.07;;
30249;SDS011;17064;47.974;13.826;2023-06-14T06:36:08;9.82;;;3.55;;
30249;SDS011;17064;47.974;13.826;2023-06-14T06:41:08;6.75;;;3.17;;
30249;SDS011;17064;47.974;13.826;2023-06-14T06:46:09;6.38;;;3.25;;
30249;SDS011;17064;47.974;13.826;2023-06-14T06:51:10;5.53;;;3.13;;
30249;SDS011;17064;47.974;13.826;2023-06-14T06:56:12;6.18;;;3.50;;
30249;SDS011;17064;47.974;13.826;2023-06-14T07:01:13;4.10;;;3.17;;
30249;SDS011;17064;47.974;13.826;2023-06-14T07:06:16;10.55;;;3.97;;
30249;SDS011;17064;47.974;13.826;2023-06-14T07:11:19;9.57;;;3.58;;
30249;SDS011;17064;47.974;13.826;2023-06-14T07:16:20;8.73;;;3.58;;
30249;SDS011;17064;47.974;13.826;2023-06-14T07:21:21;6.30;;;3.20;;
30249;SDS011;17064;47.974;13.826;2023-06-14T07:26:22;5.50;;;3.58;;
30249;SDS011;17064;47.974;13.826;2023-06-14T07:31:23;5.03;;;3.15;;
30249;SDS011;17064;47.974;13.826;2023-06-14T07:36:24;4.80;;;3.10;;
30249;SDS011;17064;47.974;13.826;2023-06-14T07:41:24;6.47;;;3.20;;
30249;SDS011;17064;47.974;13.826;2023-06-14T07:46:25;4.95;;;2.97;;
30249;SDS011;17064;47.974;13.826;2023-06-14T07:51:26;5.38;;;2.90;;
30249;SDS011;17064;47.974;13.826;2023-06-14T07:56:27;9.25;;;3.15;;
30249;SDS011;17064;47.974;13.826;2023-06-14T08:01:28;5.22;;;2.83;;
30249;SDS011;17064;47.974;13.826;2023-06-14T08:06:29;9.60;;;2.83;;
30249;SDS011;17064;47.974;13.826;2023-06-14T08:11:30;5.13;;;3.05;;
30249;SDS011;17064;47.974;13.826;2023-06-14T08:16:31;6.05;;;3.13;;
30249;SDS011;17064;47.974;13.826;2023-06-14T08:21:32;6.00;;;3.47;;
30249;SDS011;17064;47.974;13.826;2023-06-14T08:26:33;4.20;;;2.97;;
30249;SDS011;17064;47.974;13.826;2023-06-14T08:31:35;9.13;;;3.67;;
30249;SDS011;17064;47.974;13.826;2023-06-14T08:36:36;7.55;;;3.28;;
30249;SDS011;17064;47.974;13.826;2023-06-14T08:41:37;5.07;;;2.83;;
30249;SDS011;17064;47.974;13.826;2023-06-14T08:46:37;5.22;;;2.90;;
30249;SDS011;17064;47.974;13.826;2023-06-14T08:51:39;5.03;;;3.35;;
30249;SDS011;17064;47.974;13.826;2023-06-14T08:56:40;5.00;;;2.83;;
30249;SDS011;17064;47.974;13.826;2023-06-14T09:01:41;8.18;;;3.67;;
30249;SDS011;17064;47.974;13.826;2023-06-14T09:06:42;4.88;;;3.35;;
30249;SDS011;17064;47.974;13.826;2023-06-14T09:11:43;4.60;;;2.97;;
30249;SDS011;17064;47.974;13.826;2023-06-14T09:16:44;6.53;;;2.58;;
30249;SDS011;17064;47.974;13.826;2023-06-14T09:21:47;4.88;;;2.47;;
30249;SDS011;17064;47.974;13.826;2023-06-14T09:26:48;3.83;;;2.85;;
30249;SDS011;17064;47.974;13.826;2023-06-14T09:31:50;3.88;;;2.25;;
30249;SDS011;17064;47.974;13.826;2023-06-14T09:36:51;4.47;;;2.92;;
30249;SDS011;17064;47.974;13.826;2023-06-14T09:41:52;5.32;;;2.97;;
30249;SDS011;17064;47.974;13.826;2023-06-14T09:46:53;5.13;;;2.63;;
30249;SDS011;17064;47.974;13.826;2023-06-14T09:51:55;5.95;;;3.03;;
30249;SDS011;17064;47.974;13.826;2023-06-14T10:01:59;3.05;;;2.42;;
30249;SDS011;17064;47.974;13.826;2023-06-14T10:07:05;6.05;;;3.05;;
30249;SDS011;17064;47.974;13.826;2023-06-14T10:12:06;5.45;;;2.38;;
30249;SDS011;17064;47.974;13.826;2023-06-14T10:17:12;6.35;;;2.53;;
30249;SDS011;17064;47.974;13.826;2023-06-14T10:22:35;5.35;;;2.92;;
30249;SDS011;17064;47.974;13.826;2023-06-14T10:27:44;4.07;;;2.75;;
30249;SDS011;17064;47.974;13.826;2023-06-14T10:38:11;3.15;;;2.40;;
30249;SDS011;17064;47.974;13.826;2023-06-14T10:43:21;4.05;;;2.70;;
30249;SDS011;17064;47.974;13.826;2023-06-14T10:48:34;2.42;;;2.10;;
30249;SDS011;17064;47.974;13.826;2023-06-14T10:53:42;2.22;;;1.88;;
30249;SDS011;17064;47.974;13.826;2023-06-14T10:58:43;3.77;;;2.17;;
30249;SDS011;17064;47.974;13.826;2023-06-14T11:03:53;2.50;;;2.17;;
30249;SDS011;17064;47.974;13.826;2023-06-14T11:09:06;8.13;;;2.55;;
30249;SDS011;17064;47.974;13.826;2023-06-14T11:14:10;3.28;;;2.38;;
30249;SDS011;17064;47.974;13.826;2023-06-14T11:19:11;3.45;;;2.50;;
30249;SDS011;17064;47.974;13.826;2023-06-14T11:24:12;4.18;;;2.15;;
30249;SDS011;17064;47.974;13.826;2023-06-14T11:29:14;3.25;;;2.30;;
30249;SDS011;17064;47.974;13.826;2023-06-14T11:34:16;3.40;;;2.25;;
30249;SDS011;17064;47.974;13.826;2023-06-14T11:39:17;3.20;;;1.85;;
30249;SDS011;17064;47.974;13.826;2023-06-14T11:44:24;4.88;;;2.50;;
30249;SDS011;17064;47.974;13.826;2023-06-14T11:49:25;5.75;;;2.10;;
30249;SDS011;17064;47.974;13.826;2023-06-14T11:54:27;2.60;;;1.80;;
30249;SDS011;17064;47.974;13.826;2023-06-14T11:59:28;6.38;;;2.25;;
30249;SDS011;17064;47.974;13.826;2023-06-14T12:04:31;11.07;;;2.53;;
30249;SDS011;17064;47.974;13.826;2023-06-14T12:09:32;3.50;;;1.80;;
30249;SDS011;17064;47.974;13.826;2023-06-14T12:14:33;1.92;;;1.50;;
30249;SDS011;17064;47.974;13.826;2023-06-14T12:19:41;2.75;;;1.75;;
30249;SDS011;17064;47.974;13.826;2023-06-14T12:24:45;2.78;;;1.80;;
30249;SDS011;17064;47.974;13.826;2023-06-14T12:29:46;3.53;;;1.98;;
30249;SDS011;17064;47.974;13.826;2023-06-14T12:34:58;4.03;;;1.75;;
30249;SDS011;17064;47.974;13.826;2023-06-14T12:39:59;7.65;;;2.00;;
30249;SDS011;17064;47.974;13.826;2023-06-14T12:44:59;3.10;;;1.98;;
30249;SDS011;17064;47.974;13.826;2023-06-14T12:50:00;3.20;;;1.83;;
30249;SDS011;17064;47.974;13.826;2023-06-14T12:55:02;5.72;;;1.80;;
30249;SDS011;17064;47.974;13.826;2023-06-14T13:00:06;5.13;;;1.80;;
30249;SDS011;17064;47.974;13.826;2023-06-14T13:05:08;2.55;;;1.40;;
30249;SDS011;17064;47.974;13.826;2023-06-14T13:10:09;3.90;;;1.90;;
30249;SDS011;17064;47.974;13.826;2023-06-14T13:15:10;4.20;;;2.10;;
30249;SDS011;17064;47.974;13.826;2023-06-14T13:20:11;2.28;;;1.60;;
30249;SDS011;17064;47.974;13.826;2023-06-14T13:25:12;2.45;;;1.83;;
30249;SDS011;17064;47.974;13.826;2023-06-14T13:30:12;2.72;;;1.80;;
30249;SDS011;17064;47.974;13.826;2023-06-14T13:35:13;6.30;;;1.88;;
30249;SDS011;17064;47.974;13.826;2023-06-14T13:40:14;3.13;;;1.77;;
30249;SDS011;17064;47.974;13.826;2023-06-14T13:45:15;3.55;;;1.65;;
30249;SDS011;17064;47.974;13.826;2023-06-14T13:50:16;4.50;;;2.00;;
30249;SDS011;17064;47.974;13.826;2023-06-14T13:55:17;5.50;;;1.92;;
30249;SDS011;17064;47.974;13.826;2023-06-14T14:00:18;4.72;;;2.35;;
30249;SDS011;17064;47.974;13.826;2023-06-14T14:05:19;4.63;;;2.03;;
30249;SDS011;17064;47.974;13.826;2023-06-14T14:10:20;4.18;;;2.35;;
30249;SDS011;17064;47.974;13.826;2023-06-14T14:15:21;3.42;;;2.05;;
30249;SDS011;17064;47.974;13.826;2023-06-14T14:20:22;5.97;;;1.95;;
30249;SDS011;17064;47.974;13.826;2023-06-14T14:25:23;6.97;;;1.95;;
30249;SDS011;17064;47.974;13.826;2023-06-14T14:30:24;3.47;;;1.92;;
30249;SDS011;17064;47.974;13.826;2023-06-14T14:35:25;14.88;;;3.15;;
30249;SDS011;17064;47.974;13.826;2023-06-14T14:40:30;2.58;;;2.13;;
30249;SDS011;17064;47.974;13.826;2023-06-14T14:45:31;6.85;;;1.73;;
30249;SDS011;17064;47.974;13.826;2023-06-14T14:50:32;5.05;;;2.10;;
30249;SDS011;17064;47.974;13.826;2023-06-14T14:55:33;7.72;;;2.95;;
30249;SDS011;17064;47.974;13.826;2023-06-14T15:00:36;3.50;;;2.22;;
30249;SDS011;17064;47.974;13.826;2023-06-14T15:05:36;4.10;;;1.90;;
30249;SDS011;17064;47.974;13.826;2023-06-14T15:10:38;2.10;;;1.90;;
30249;SDS011;17064;47.974;13.826;2023-06-14T15:15:43;3.40;;;1.73;;
30249;SDS011;17064;47.974;13.826;2023-06-14T15:20:43;4.45;;;2.33;;
30249;SDS011;17064;47.974;13.826;2023-06-14T15:25:44;2.78;;;2.00;;
30249;SDS011;17064;47.974;13.826;2023-06-14T15:30:47;9.18;;;2.10;;
30249;SDS011;17064;47.974;13.826;2023-06-14T15:35:47;3.38;;;1.95;;
30249;SDS011;17064;47.974;13.826;2023-06-14T15:40:48;7.07;;;2.15;;
30249;SDS011;17064;47.974;13.826;2023-06-14T15:45:49;2.60;;;1.73;;
30249;SDS011;17064;47.974;13.826;2023-06-14T15:50:49;2.65;;;2.17;;
30249;SDS011;17064;47.974;13.826;2023-06-14T15:55:50;2.17;;;1.63;;
30249;SDS011;17064;47.974;13.826;2023-06-14T16:00:51;2.33;;;1.55;;
30249;SDS011;17064;47.974;13.826;2023-06-14T16:05:52;5.82;;;1.75;;
30249;SDS011;17064;47.974;13.826;2023-06-14T16:10:52;10.30;;;2.22;;
30249;SDS011;17064;47.974;13.826;2023-06-14T16:15:53;6.70;;;2.10;;
30249;SDS011;17064;47.974;13.826;2023-06-14T16:20:54;3.42;;;2.17;;
30249;SDS011;17064;47.974;13.826;2023-06-14T16:25:55;4.22;;;1.88;;
30249;SDS011;17064;47.974;13.826;2023-06-14T16:30:56;8.07;;;2.00;;
30249;SDS011;17064;47.974;13.826;2023-06-14T16:35:56;10.45;;;2.47;;
30249;SDS011;17064;47.974;13.826;2023-06-14T16:40:58;4.40;;;2.13;;
30249;SDS011;17064;47.974;13.826;2023-06-14T16:45:59;3.45;;;2.33;;
30249;SDS011;17064;47.974;13.826;2023-06-14T16:51:00;4.15;;;2.30;;
30249;SDS011;17064;47.974;13.826;2023-06-14T16:56:01;7.43;;;2.10;;
30249;SDS011;17064;47.974;13.826;2023-06-14T17:01:03;4.07;;;1.83;;
30249;SDS011;17064;47.974;13.826;2023-06-14T17:06:03;7.00;;;1.90;;
30249;SDS011;17064;47.974;13.826;2023-06-14T17:16:07;5.50;;;1.88;;
30249;SDS011;17064;47.974;13.826;2023-06-14T17:21:08;5.13;;;2.28;;
30249;SDS011;17064;47.974;13.826;2023-06-14T17:26:09;6.00;;;1.92;;
30249;SDS011;17064;47.974;13.826;2023-06-14T17:31:10;2.80;;;1.80;;
30249;SDS011;17064;47.974;13.826;2023-06-14T17:36:10;3.90;;;1.98;;
30249;SDS011;17064;47.974;13.826;2023-06-14T17:41:11;3.78;;;2.00;;
30249;SDS011;17064;47.974;13.826;2023-06-14T17:46:14;3.30;;;1.70;;
30249;SDS011;17064;47.974;13.826;2023-06-14T17:51:15;2.70;;;2.20;;
30249;SDS011;17064;47.974;13.826;2023-06-14T17:56:15;2.72;;;1.95;;
30249;SDS011;17064;47.974;13.826;2023-06-14T18:01:18;2.47;;;1.63;;
30249;SDS011;17064;47.974;13.826;2023-06-14T18:06:20;2.83;;;1.80;;
30249;SDS011;17064;47.974;13.826;2023-06-14T18:11:21;7.35;;;2.58;;
30249;SDS011;17064;47.974;13.826;2023-06-14T18:16:24;4.25;;;2.20;;
30249;SDS011;17064;47.974;13.826;2023-06-14T18:21:25;3.00;;;2.20;;
30249;SDS011;17064;47.974;13.826;2023-06-14T18:26:26;3.63;;;1.90;;
30249;SDS011;17064;47.974;13.826;2023-06-14T18:31:26;2.72;;;1.92;;
30249;SDS011;17064;47.974;13.826;2023-06-14T18:36:28;5.05;;;2.10;;
30249;SDS011;17064;47.974;13.826;2023-06-14T18:41:29;3.30;;;2.05;;
30249;SDS011;17064;47.974;13.826;2023-06-14T18:46:30;2.85;;;1.73;;
30249;SDS011;17064;47.974;13.826;2023-06-14T18:51:30;3.95;;;2.13;;
30249;SDS011;17064;47.974;13.826;2023-06-14T18:56:34;5.25;;;2.60;;
30249;SDS011;17064;47.974;13.826;2023-06-14T19:01:35;3.25;;;2.08;;
30249;SDS011;17064;47.974;13.826;2023-06-14T19:06:35;6.20;;;3.22;;
30249;SDS011;17064;47.974;13.826;2023-06-14T19:11:38;5.40;;;2.20;;
30249;SDS011;17064;47.974;13.826;2023-06-14T19:16:40;2.95;;;2.03;;
30249;SDS011;17064;47.974;13.826;2023-06-14T19:21:41;6.18;;;2.13;;
30249;SDS011;17064;47.974;13.826;2023-06-14T19:26:46;3.78;;;2.33;;
30249;SDS011;17064;47.974;13.826;2023-06-14T19:31:47;4.63;;;2.20;;
30249;SDS011;17064;47.974;13.826;2023-06-14T19:36:48;4.35;;;1.98;;
30249;SDS011;17064;47.974;13.826;2023-06-14T19:41:50;4.82;;;2.25;;
30249;SDS011;17064;47.974;13.826;2023-06-14T19:46:51;3.88;;;2.33;;
30249;SDS011;17064;47.974;13.826;2023-06-14T19:51:51;2.13;;;1.75;;
30249;SDS011;17064;47.974;13.826;2023-06-14T19:56:52;3.40;;;2.30;;
30249;SDS011;17064;47.974;13.826;2023-06-14T20:01:53;3.28;;;1.90;;
30249;SDS011;17064;47.974;13.826;2023-06-14T20:06:54;2.75;;;2.22;;
30249;SDS011;17064;47.974;13.826;2023-06-14T20:11:58;4.47;;;2.53;;
30249;SDS011;17064;47.974;13.826;2023-06-14T20:16:59;2.90;;;2.28;;
30249;SDS011;17064;47.974;13.826;2023-06-14T20:22:00;5.00;;;2.03;;
30249;SDS011;17064;47.974;13.826;2023-06-14T20:27:03;4.55;;;2.20;;
30249;SDS011;17064;47.974;13.826;2023-06-14T20:32:04;4.78;;;2.60;;
30249;SDS011;17064;47.974;13.826;2023-06-14T20:37:05;4.53;;;2.13;;
30249;SDS011;17064;47.974;13.826;2023-06-14T20:42:06;3.75;;;2.33;;
30249;SDS011;17064;47.974;13.826;2023-06-14T20:47:12;5.43;;;2.60;;
30249;SDS011;17064;47.974;13.826;2023-06-14T20:52:13;3.78;;;2.13;;
30249;SDS011;17064;47.974;13.826;2023-06-14T20:57:14;2.92;;;2.38;;
30249;SDS011;17064;47.974;13.826;2023-06-14T21:02:17;5.43;;;2.67;;
30249;SDS011;17064;47.974;13.826;2023-06-14T21:07:18;5.93;;;2.92;;
30249;SDS011;17064;47.974;13.826;2023-06-14T21:12:19;3.92;;;2.40;;
30249;SDS011;17064;47.974;13.826;2023-06-14T21:17:19;4.38;;;2.53;;
30249;SDS011;17064;47.974;13.826;2023-06-14T21:22:20;6.20;;;2.15;;
30249;SDS011;17064;47.974;13.826;2023-06-14T21:27:21;5.95;;;2.72;;
30249;SDS011;17064;47.974;13.826;2023-06-14T21:32:25;3.97;;;2.80;;
30249;SDS011;17064;47.974;13.826;2023-06-14T21:37:26;3.42;;;2.67;;
30249;SDS011;17064;47.974;13.826;2023-06-14T21:42:26;4.90;;;3.30;;
30249;SDS011;17064;47.974;13.826;2023-06-14T21:47:27;4.15;;;2.70;;
30249;SDS011;17064;47.974;13.826;2023-06-14T21:52:28;5.72;;;2.95;;
30249;SDS011;17064;47.974;13.826;2023-06-14T21:57:29;8.32;;;3.53;;
30249;SDS011;17064;47.974;13.826;2023-06-14T22:02:32;6.38;;;3.15;;
30249;SDS011;17064;47.974;13.826;2023-06-14T22:07:33;4.15;;;3.10;;
30249;SDS011;17064;47.974;13.826;2023-06-14T22:12:34;6.70;;;2.88;;
30249;SDS011;17064;47.974;13.826;2023-06-14T22:17:38;3.85;;;2.70;;
30249;SDS011;17064;47.974;13.826;2023-06-14T22:22:41;5.43;;;2.90;;
30249;SDS011;17064;47.974;13.826;2023-06-14T22:27:41;5.88;;;3.17;;
30249;SDS011;17064;47.974;13.826;2023-06-14T22:32:46;5.30;;;2.85;;
30249;SDS011;17064;47.974;13.826;2023-06-14T22:37:48;4.40;;;2.72;;
30249;SDS011;17064;47.974;13.826;2023-06-14T22:42:49;4.80;;;3.03;;
30249;SDS011;17064;47.974;13.826;2023-06-14T22:47:52;3.92;;;2.53;;
30249;SDS011;17064;47.974;13.826;2023-06-14T22:52:56;4.35;;;2.90;;
30249;SDS011;17064;47.974;13.826;2023-06-14T22:57:57;3.70;;;3.17;;
30249;SDS011;17064;47.974;13.826;2023-06-14T23:03:00;3.78;;;2.50;;
30249;SDS011;17064;47.974;13.826;2023-06-14T23:08:01;5.07;;;3.38;;
30249;SDS011;17064;47.974;13.826;2023-06-14T23:13:06;5.30;;;3.83;;
30249;SDS011;17064;47.974;13.826;2023-06-14T23:18:07;4.70;;;3.20;;
30249;SDS011;17064;47.974;13.826;2023-06-14T23:23:17;4.28;;;3.00;;
30249;SDS011;17064;47.974;13.826;2023-06-14T23:28:27;5.70;;;3.47;;
30249;SDS011;17064;47.974;13.826;2023-06-14T23:33:36;4.22;;;3.08;;
30249;SDS011;17064;47.974;13.826;2023-06-14T23:38:41;5.65;;;3.30;;
30249;SDS011;17064;47.974;13.826;2023-06-14T23:43:47;3.50;;;3.17;;
30249;SDS011;17064;47.974;13.826;2023-06-14T23:48:51;5.50;;;3.38;;
30249;SDS011;17064;47.974;13.826;2023-06-14T23:53:54;5.47;;;2.90;;
30249;SDS011;17064;47.974;13.826;2023-06-14T23:59:00;4.40;;;3.05;;
